createdAt,value
2023-09-20T00:02:18.276Z,79.00
2023-09-20T00:04:49.549Z,79.00
2023-09-20T00:07:17.470Z,79.93
2023-09-20T00:09:44.706Z,81.58
2023-09-20T00:12:11.797Z,83.64
2023-09-20T00:14:39.022Z,83.17
2023-09-20T00:17:06.423Z,82.06
2023-09-20T00:19:33.998Z,80.62
2023-09-20T00:22:01.071Z,79.43
2023-09-20T00:24:28.574Z,78.53
2023-09-20T00:26:56.163Z,78.88
2023-09-20T00:29:26.178Z,78.48
2023-09-20T00:31:53.694Z,78.02
2023-09-20T00:34:21.102Z,78.59
2023-09-20T00:36:48.260Z,79.75
2023-09-20T00:39:15.797Z,80.04
2023-09-20T00:41:43.031Z,79.70
2023-09-20T00:44:10.211Z,79.38
2023-09-20T00:46:40.121Z,81.23
2023-09-20T00:49:07.890Z,84.75
2023-09-20T00:51:35.179Z,84.35
2023-09-20T00:54:05.559Z,83.29
2023-09-20T00:56:34.469Z,81.92
2023-09-20T00:59:08.402Z,82.03
2023-09-20T01:01:36.360Z,81.11
2023-09-20T01:04:06.221Z,80.18
2023-09-20T01:06:34.835Z,79.83
2023-09-20T01:09:02.080Z,79.27
2023-09-20T01:11:29.489Z,79.44
2023-09-20T01:14:00.765Z,79.59
2023-09-20T01:16:28.462Z,79.00
2023-09-20T01:18:55.608Z,78.41
2023-09-20T01:21:22.669Z,77.74
2023-09-20T01:23:50.709Z,76.99
2023-09-20T01:26:18.262Z,76.83
2023-09-20T01:28:45.515Z,76.82
2023-09-20T01:31:12.861Z,77.39
2023-09-20T01:33:40.152Z,77.31
2023-09-20T01:36:07.921Z,76.65
2023-09-20T01:38:36.190Z,76.48
2023-09-20T01:41:05.025Z,76.97
2023-09-20T01:43:32.649Z,77.35
2023-09-20T01:46:00.132Z,76.91
2023-09-20T01:48:28.528Z,76.64
2023-09-20T01:50:55.898Z,75.91
2023-09-20T01:53:26.028Z,75.62
2023-09-20T01:55:53.716Z,75.34
2023-09-20T01:58:21.093Z,75.51
2023-09-20T02:00:51.877Z,75.54
2023-09-20T02:03:20.408Z,75.07
2023-09-20T02:06:08.011Z,75.40
2023-09-20T02:08:35.578Z,76.05
2023-09-20T02:11:04.497Z,77.13
2023-09-20T02:13:31.787Z,77.10
2023-09-20T02:16:00.852Z,77.40
2023-09-20T02:18:27.950Z,76.72
2023-09-20T02:20:56.875Z,76.38
2023-09-20T02:23:24.132Z,76.45
2023-09-20T02:25:51.355Z,76.63
2023-09-20T02:28:18.424Z,76.27
2023-09-20T02:30:46.600Z,76.30
2023-09-20T02:33:16.640Z,75.60
2023-09-20T02:35:46.503Z,75.21
2023-09-20T02:38:14.204Z,74.96
2023-09-20T02:40:41.500Z,74.62
2023-09-20T02:43:10.020Z,73.99
2023-09-20T02:45:46.592Z,74.42
2023-09-20T02:48:14.916Z,73.97
2023-09-20T02:50:42.984Z,73.65
2023-09-20T02:53:11.163Z,73.65
2023-09-20T02:55:40.008Z,73.76
2023-09-20T02:58:08.734Z,73.95
2023-09-20T03:00:39.745Z,74.73
2023-09-20T03:03:09.101Z,74.26
2023-09-20T03:05:38.470Z,73.69
2023-09-20T03:08:13.201Z,74.04
2023-09-20T03:10:45.019Z,74.17
2023-09-20T03:13:18.274Z,73.67
2023-09-20T03:15:49.357Z,73.40
2023-09-20T03:18:19.868Z,73.94
2023-09-20T03:20:54.478Z,74.39
2023-09-20T03:23:23.828Z,75.44
2023-09-20T03:25:52.594Z,75.49
2023-09-20T03:28:24.737Z,75.62
2023-09-20T03:30:57.233Z,75.48
2023-09-20T03:33:26.517Z,75.98
2023-09-20T03:35:53.784Z,76.75
2023-09-20T03:38:21.687Z,75.96
2023-09-20T03:40:49.388Z,75.07
2023-09-20T03:43:17.119Z,75.10
2023-09-20T03:45:49.000Z,74.68
2023-09-20T03:48:17.915Z,74.23
2023-09-20T03:50:46.702Z,73.64
2023-09-20T03:53:17.554Z,73.56
2023-09-20T03:55:48.169Z,73.70
2023-09-20T03:58:15.349Z,73.84
2023-09-20T04:00:43.927Z,73.85
2023-09-20T04:03:13.548Z,73.30
2023-09-20T04:05:46.327Z,73.35
2023-09-20T04:08:17.940Z,72.95
2023-09-20T04:10:46.859Z,73.13
2023-09-20T04:13:16.019Z,73.44
2023-09-20T04:15:44.503Z,73.54
2023-09-20T04:18:14.614Z,72.96
2023-09-20T04:20:51.361Z,72.67
2023-09-20T04:23:20.392Z,72.71
2023-09-20T04:25:47.692Z,72.59
2023-09-20T04:28:14.827Z,73.06
2023-09-20T04:30:42.233Z,75.87
2023-09-20T04:33:13.481Z,79.10
2023-09-20T04:35:43.240Z,81.45
2023-09-20T04:38:16.466Z,80.58
2023-09-20T04:40:44.022Z,79.83
2023-09-20T04:43:11.677Z,79.23
2023-09-20T04:45:39.949Z,77.65
2023-09-20T04:48:07.862Z,77.24
2023-09-20T04:50:36.728Z,76.51
2023-09-20T04:53:05.126Z,75.84
2023-09-20T04:55:35.584Z,74.94
2023-09-20T04:58:03.097Z,76.02
2023-09-20T05:00:39.245Z,77.30
2023-09-20T05:03:12.935Z,79.71
2023-09-20T05:05:40.670Z,84.66
2023-09-20T05:08:09.877Z,88.49
2023-09-20T05:10:38.794Z,90.86
2023-09-20T05:13:08.553Z,90.84
2023-09-20T05:15:36.285Z,91.46
2023-09-20T05:18:05.654Z,91.29
2023-09-20T05:20:33.882Z,92.61
2023-09-20T05:23:02.011Z,91.54
2023-09-20T05:25:29.426Z,90.60
2023-09-20T05:27:56.768Z,89.71
2023-09-20T05:30:23.905Z,89.22
2023-09-20T05:32:53.476Z,88.98
2023-09-20T05:35:21.347Z,88.96
2023-09-20T05:37:49.631Z,89.27
2023-09-20T05:40:20.086Z,91.99
2023-09-20T05:42:48.496Z,93.61
2023-09-20T05:45:15.817Z,93.81
2023-09-20T05:47:43.722Z,94.22
2023-09-20T05:50:11.846Z,94.59
2023-09-20T05:52:41.517Z,95.95
2023-09-20T05:55:15.971Z,97.70
2023-09-20T05:57:44.066Z,98.67
2023-09-20T06:00:18.791Z,99.40
2023-09-20T06:02:47.112Z,97.74
2023-09-20T06:05:16.110Z,95.73
2023-09-20T06:07:46.090Z,93.10
2023-09-20T06:10:13.928Z,90.37
2023-09-20T06:12:41.019Z,89.78
2023-09-20T06:15:09.373Z,89.23
2023-09-20T06:17:38.006Z,88.05
2023-09-20T06:20:09.360Z,88.59
2023-09-20T06:22:37.041Z,87.76
2023-09-20T06:25:06.003Z,90.41
2023-09-20T06:27:33.105Z,91.85
2023-09-20T06:30:01.610Z,93.00
2023-09-20T06:32:31.565Z,94.00
2023-09-20T06:34:59.595Z,94.63
2023-09-20T06:37:26.906Z,95.85
2023-09-20T06:39:56.524Z,96.34
2023-09-20T06:42:27.325Z,96.19
2023-09-20T06:44:56.955Z,96.29
2023-09-20T06:47:25.397Z,97.89
2023-09-20T06:49:52.959Z,98.57
2023-09-20T06:52:20.130Z,98.52
2023-09-20T06:54:47.264Z,99.69
2023-09-20T06:57:18.551Z,99.40
2023-09-20T06:59:47.023Z,100.00
2023-09-20T07:02:17.682Z,100.00
2023-09-20T07:04:45.430Z,100.00
2023-09-20T07:07:14.151Z,98.35
2023-09-20T07:09:41.463Z,97.08
2023-09-20T07:12:09.106Z,98.74
2023-09-20T07:14:36.720Z,96.40
2023-09-20T07:17:04.769Z,98.93
2023-09-20T07:19:32.895Z,99.02
2023-09-20T07:22:00.843Z,99.22
2023-09-20T07:24:28.010Z,98.88
2023-09-20T07:26:59.841Z,99.06
2023-09-20T07:29:27.183Z,98.27
2023-09-20T07:31:54.487Z,98.13
2023-09-20T07:34:24.480Z,96.86
2023-09-20T07:36:58.384Z,97.19
2023-09-20T07:39:26.659Z,94.99
2023-09-20T07:41:54.149Z,92.16
2023-09-20T07:44:32.451Z,91.67
2023-09-20T07:46:59.848Z,91.68
2023-09-20T07:49:27.232Z,88.47
2023-09-20T07:51:55.288Z,88.28
2023-09-20T07:54:22.439Z,89.89
2023-09-20T07:56:53.628Z,87.29
2023-09-20T07:59:25.091Z,87.85
2023-09-20T08:01:55.235Z,87.26
2023-09-20T08:04:24.648Z,85.45
2023-09-20T08:06:51.804Z,82.98
2023-09-20T08:09:18.910Z,82.75
2023-09-20T08:11:46.027Z,84.59
2023-09-20T08:14:13.400Z,79.41
2023-09-20T08:17:00.310Z,78.09
2023-09-20T08:19:32.567Z,77.63
2023-09-20T08:21:59.904Z,75.00
2023-09-20T08:24:45.671Z,75.23
2023-09-20T08:27:31.158Z,73.95
2023-09-20T08:30:16.602Z,72.78
2023-09-20T08:33:02.136Z,72.64
2023-09-20T08:35:47.923Z,73.27
2023-09-20T08:38:33.743Z,72.54
2023-09-20T08:41:19.268Z,70.87
2023-09-20T08:44:05.474Z,70.99
2023-09-20T08:46:55.758Z,69.67
2023-09-20T08:49:43.881Z,69.66
2023-09-20T08:52:31.461Z,67.34
2023-09-20T08:55:20.668Z,67.33
2023-09-20T08:58:07.028Z,66.13
2023-09-20T09:00:35.720Z,66.45
2023-09-20T09:03:05.781Z,65.62
2023-09-20T09:05:34.273Z,65.54
2023-09-20T09:08:03.730Z,64.49
2023-09-20T09:10:31.326Z,64.13
2023-09-20T09:12:58.674Z,64.00
2023-09-20T09:15:28.775Z,63.75
2023-09-20T09:17:56.714Z,61.65
2023-09-20T09:20:24.756Z,61.15
2023-09-20T09:22:52.407Z,61.07
2023-09-20T09:25:25.998Z,58.53
2023-09-20T09:27:54.397Z,57.58
2023-09-20T09:30:23.174Z,52.83
2023-09-20T09:32:51.660Z,52.44
2023-09-20T09:35:35.417Z,50.57
2023-09-20T09:38:07.983Z,49.62
2023-09-20T09:40:52.244Z,50.07
2023-09-20T09:43:20.784Z,48.70
2023-09-20T09:45:54.848Z,49.44
2023-09-20T09:48:25.815Z,48.53
2023-09-20T09:50:57.077Z,47.48
2023-09-20T09:53:26.528Z,48.31
2023-09-20T09:55:55.523Z,47.64
2023-09-20T09:58:23.149Z,47.40
2023-09-20T10:00:56.492Z,47.19
2023-09-20T10:03:33.870Z,46.87
2023-09-20T10:06:11.654Z,47.71
2023-09-20T10:08:41.285Z,47.89
2023-09-20T10:11:10.012Z,47.13
2023-09-20T10:13:39.087Z,46.83
2023-09-20T10:16:12.235Z,45.52
2023-09-20T10:19:00.064Z,46.16
2023-09-20T10:21:32.213Z,46.45
2023-09-20T10:24:10.667Z,46.25
2023-09-20T10:26:42.201Z,44.13
2023-09-20T10:29:30.054Z,45.46
2023-09-20T10:32:10.444Z,44.54
2023-09-20T10:34:39.090Z,43.98
2023-09-20T10:37:12.201Z,42.82
2023-09-20T10:39:47.881Z,43.54
2023-09-20T10:42:17.114Z,43.00
2023-09-20T10:44:44.767Z,42.19
2023-09-20T10:47:17.729Z,41.73
2023-09-20T10:49:51.565Z,42.24
2023-09-20T10:52:34.052Z,42.89
2023-09-20T10:55:20.347Z,42.10
2023-09-20T10:57:48.032Z,42.02
2023-09-20T11:00:26.711Z,42.40
2023-09-20T11:02:54.265Z,42.88
2023-09-20T11:05:25.017Z,41.04
2023-09-20T11:07:56.125Z,41.85
2023-09-20T11:10:24.474Z,40.93
2023-09-20T11:12:56.547Z,41.14
2023-09-20T11:15:25.408Z,41.29
2023-09-20T11:17:53.326Z,40.74
2023-09-20T11:20:20.651Z,40.63
2023-09-20T11:22:49.068Z,40.96
2023-09-20T11:25:16.275Z,41.59
2023-09-20T11:27:43.522Z,41.11
2023-09-20T11:30:12.305Z,41.29
2023-09-20T11:32:41.063Z,40.06
2023-09-20T11:35:09.098Z,39.81
2023-09-20T11:37:36.876Z,40.41
2023-09-20T11:40:06.339Z,40.51
2023-09-20T11:42:35.824Z,40.53
2023-09-20T11:45:33.628Z,40.81
2023-09-20T11:47:57.505Z,40.12
2023-09-20T11:50:27.874Z,39.05
2023-09-20T11:52:56.485Z,40.24
2023-09-20T11:55:24.545Z,40.84
2023-09-20T11:57:54.175Z,40.83
2023-09-20T12:00:27.450Z,41.39
2023-09-20T12:02:55.848Z,40.92
2023-09-20T12:05:23.527Z,40.64
2023-09-20T12:07:59.549Z,40.11
2023-09-20T12:10:28.272Z,40.60
2023-09-20T12:12:56.205Z,40.73
2023-09-20T12:15:27.117Z,41.07
2023-09-20T12:17:57.430Z,41.37
2023-09-20T12:20:26.070Z,41.06
2023-09-20T12:22:54.456Z,40.79
2023-09-20T12:25:22.027Z,40.85
2023-09-20T12:27:49.449Z,40.89
2023-09-20T12:30:17.071Z,41.15
2023-09-20T12:32:44.461Z,40.61
2023-09-20T12:35:12.206Z,41.10
2023-09-20T12:37:39.469Z,41.45
2023-09-20T12:40:10.382Z,40.00
2023-09-20T12:42:38.780Z,39.44
2023-09-20T12:45:10.342Z,39.42
2023-09-20T12:47:41.945Z,39.25
2023-09-20T12:50:14.377Z,38.44
2023-09-20T12:52:46.257Z,37.83
2023-09-20T12:55:15.092Z,37.22
2023-09-20T12:57:47.326Z,37.41
2023-09-20T13:00:29.865Z,37.46
2023-09-20T13:03:08.441Z,37.07
2023-09-20T13:05:38.152Z,36.91
2023-09-20T13:08:07.855Z,36.98
2023-09-20T13:10:35.170Z,36.28
2023-09-20T13:13:09.800Z,36.95
2023-09-20T13:15:40.381Z,35.33
2023-09-20T13:18:11.415Z,34.24
2023-09-20T13:20:42.766Z,34.83
2023-09-20T13:23:11.422Z,34.92
2023-09-20T13:25:44.350Z,34.04
2023-09-20T13:28:13.740Z,33.42
2023-09-20T13:30:42.485Z,33.65
2023-09-20T13:33:12.534Z,33.53
2023-09-20T13:35:40.901Z,33.40
2023-09-20T13:38:08.690Z,34.52
2023-09-20T13:40:37.548Z,33.91
2023-09-20T13:43:05.033Z,33.82
2023-09-20T13:45:32.902Z,33.81
2023-09-20T13:48:00.046Z,33.41
2023-09-20T13:50:29.216Z,33.22
2023-09-20T13:52:58.478Z,32.44
2023-09-20T13:55:32.556Z,32.90
2023-09-20T13:58:02.377Z,32.40
2023-09-20T14:00:30.362Z,32.80
2023-09-20T14:02:58.782Z,32.00
2023-09-20T14:05:27.729Z,31.84
2023-09-20T14:07:59.389Z,32.09
2023-09-20T14:10:35.368Z,32.79
2023-09-20T14:13:03.091Z,33.13
2023-09-20T14:15:31.290Z,33.59
2023-09-20T14:18:01.529Z,32.79
2023-09-20T14:20:29.538Z,32.04
2023-09-20T14:22:57.341Z,32.37
2023-09-20T14:25:26.541Z,32.52
2023-09-20T14:27:57.391Z,32.51
2023-09-20T14:30:24.825Z,32.67
2023-09-20T14:32:56.036Z,32.44
2023-09-20T14:35:24.098Z,32.17
2023-09-20T14:37:52.850Z,32.66
2023-09-20T14:40:24.217Z,31.96
2023-09-20T14:42:57.162Z,32.05
2023-09-20T14:45:28.102Z,32.66
2023-09-20T14:47:57.360Z,33.12
2023-09-20T14:50:27.164Z,33.29
2023-09-20T14:52:54.893Z,33.07
2023-09-20T14:55:22.403Z,33.59
2023-09-20T14:57:54.201Z,33.49
2023-09-20T15:00:23.712Z,33.51
2023-09-20T15:03:01.063Z,33.72
2023-09-20T15:05:28.586Z,33.82
2023-09-20T15:07:57.486Z,34.31
2023-09-20T15:10:27.016Z,33.74
2023-09-20T15:13:00.070Z,33.22
2023-09-20T15:15:29.072Z,34.58
2023-09-20T15:17:57.027Z,34.74
2023-09-20T15:20:25.243Z,34.40
2023-09-20T15:22:52.789Z,35.34
2023-09-20T15:25:20.070Z,34.94
2023-09-20T15:27:47.394Z,34.97
2023-09-20T15:30:15.457Z,35.43
2023-09-20T15:32:43.878Z,35.79
2023-09-20T15:35:11.280Z,36.13
2023-09-20T15:37:46.028Z,36.31
2023-09-20T15:40:18.716Z,36.36
2023-09-20T15:42:48.147Z,36.77
2023-09-20T15:45:20.195Z,37.17
2023-09-20T15:47:48.571Z,37.24
2023-09-20T15:50:16.560Z,36.44
2023-09-20T15:52:43.930Z,37.09
2023-09-20T15:55:16.903Z,36.91
2023-09-20T15:57:44.743Z,35.76
2023-09-20T16:00:15.651Z,36.95
2023-09-20T16:02:44.322Z,37.12
2023-09-20T16:05:12.436Z,37.78
2023-09-20T16:07:40.870Z,38.19
2023-09-20T16:10:15.613Z,38.70
2023-09-20T16:12:47.874Z,39.59
2023-09-20T16:15:17.330Z,39.83
2023-09-20T16:17:45.467Z,39.67
2023-09-20T16:20:16.041Z,39.92
2023-09-20T16:22:44.999Z,40.80
2023-09-20T16:25:13.660Z,41.21
2023-09-20T16:27:41.271Z,42.41
2023-09-20T16:30:09.449Z,42.77
2023-09-20T16:32:36.763Z,43.50
2023-09-20T16:35:06.408Z,44.28
2023-09-20T16:37:33.744Z,45.08
2023-09-20T16:40:01.537Z,45.05
2023-09-20T16:42:29.458Z,45.25
2023-09-20T16:44:56.973Z,45.62
2023-09-20T16:47:24.436Z,45.75
2023-09-20T16:49:52.792Z,46.11
2023-09-20T16:52:19.941Z,46.81
2023-09-20T16:54:47.095Z,47.01
2023-09-20T16:57:14.219Z,47.60
2023-09-20T16:59:44.041Z,48.04
2023-09-20T17:02:12.029Z,48.54
2023-09-20T17:04:39.426Z,48.54
2023-09-20T17:07:06.562Z,48.98
2023-09-20T17:09:33.942Z,49.51
2023-09-20T17:12:02.703Z,49.60
2023-09-20T17:14:30.182Z,50.22
2023-09-20T17:17:00.405Z,50.56
2023-09-20T17:19:27.554Z,50.80
2023-09-20T17:21:54.744Z,51.15
2023-09-20T17:24:21.973Z,51.49
2023-09-20T17:26:49.296Z,51.64
2023-09-20T17:29:16.494Z,51.72
2023-09-20T17:31:43.772Z,50.72
2023-09-20T17:34:11.238Z,51.69
2023-09-20T17:36:38.494Z,52.13
2023-09-20T17:39:06.321Z,52.49
2023-09-20T17:41:34.361Z,52.63
2023-09-20T17:44:01.699Z,52.86
2023-09-20T17:46:29.942Z,51.33
2023-09-20T17:48:57.603Z,52.34
2023-09-20T17:51:27.457Z,52.96
2023-09-20T17:53:54.727Z,53.10
2023-09-20T17:56:22.072Z,53.34
2023-09-20T17:58:50.819Z,53.50
2023-09-20T18:01:20.000Z,53.53
2023-09-20T18:03:49.253Z,53.12
2023-09-20T18:06:18.895Z,53.51
2023-09-20T18:08:51.192Z,53.74
2023-09-20T18:11:19.500Z,53.84
2023-09-20T18:13:47.463Z,53.62
2023-09-20T18:16:14.911Z,53.70
2023-09-20T18:18:43.107Z,54.60
2023-09-20T18:21:12.478Z,54.89
2023-09-20T18:23:41.988Z,54.87
2023-09-20T18:26:13.986Z,55.13
2023-09-20T18:28:41.271Z,55.59
2023-09-20T18:31:17.258Z,55.55
2023-09-20T18:33:49.625Z,55.89
2023-09-20T18:36:18.750Z,56.29
2023-09-20T18:38:47.736Z,56.79
2023-09-20T18:41:16.420Z,56.93
2023-09-20T18:43:47.570Z,56.80
2023-09-20T18:46:15.832Z,56.56
2023-09-20T18:48:43.638Z,56.68
2023-09-20T18:51:12.514Z,56.45
2023-09-20T18:53:40.078Z,56.63
2023-09-20T18:56:08.302Z,56.73
2023-09-20T18:58:37.244Z,56.96
2023-09-20T19:01:20.944Z,57.29
2023-09-20T19:03:48.750Z,57.90
2023-09-20T19:06:21.657Z,57.93
2023-09-20T19:08:58.212Z,58.87
2023-09-20T19:11:29.164Z,59.51
2023-09-20T19:13:56.337Z,59.75
2023-09-20T19:16:25.368Z,60.15
2023-09-20T19:19:00.266Z,60.19
2023-09-20T19:21:33.263Z,59.94
2023-09-20T19:24:10.313Z,60.83
2023-09-20T19:26:38.218Z,62.18
2023-09-20T19:29:05.551Z,63.18
2023-09-20T19:31:32.841Z,63.16
2023-09-20T19:34:00.178Z,62.81
2023-09-20T19:36:29.851Z,62.22
2023-09-20T19:38:57.268Z,62.70
2023-09-20T19:41:25.938Z,63.46
2023-09-20T19:43:53.397Z,63.30
2023-09-20T19:46:20.630Z,61.95
2023-09-20T19:48:49.196Z,62.10
2023-09-20T19:51:17.661Z,62.18
2023-09-20T19:53:46.169Z,62.60
2023-09-20T19:56:21.205Z,63.06
2023-09-20T19:58:51.465Z,63.55
2023-09-20T20:01:20.886Z,64.23
2023-09-20T20:03:48.441Z,65.04
2023-09-20T20:06:19.095Z,65.69
2023-09-20T20:08:47.254Z,65.73
2023-09-20T20:11:14.663Z,67.02
2023-09-20T20:13:43.609Z,67.09
2023-09-20T20:16:15.373Z,66.70
2023-09-20T20:18:50.146Z,66.12
2023-09-20T20:21:18.604Z,65.02
2023-09-20T20:23:46.773Z,64.54
2023-09-20T20:26:15.420Z,63.80
2023-09-20T20:28:43.622Z,63.35
2023-09-20T20:31:15.250Z,62.78
2023-09-20T20:33:42.653Z,62.30
2023-09-20T20:36:10.072Z,62.11
2023-09-20T20:38:37.455Z,61.85
2023-09-20T20:41:06.813Z,61.65
2023-09-20T20:43:34.643Z,61.77
2023-09-20T20:46:01.957Z,61.39
2023-09-20T20:48:29.122Z,62.67
2023-09-20T20:50:56.714Z,63.24
2023-09-20T20:53:25.554Z,63.08
2023-09-20T20:55:56.793Z,62.49
2023-09-20T20:58:27.228Z,62.91
2023-09-20T21:00:58.786Z,63.87
2023-09-20T21:03:26.461Z,63.72
2023-09-20T21:05:53.988Z,63.53
2023-09-20T21:08:22.476Z,63.33
2023-09-20T21:10:50.232Z,63.57
2023-09-20T21:13:18.321Z,63.49
2023-09-20T21:15:48.510Z,63.42
2023-09-20T21:18:20.223Z,63.38
2023-09-20T21:20:51.153Z,63.19
2023-09-20T21:23:18.943Z,63.37
2023-09-20T21:25:47.446Z,63.60
2023-09-20T21:28:15.033Z,63.79
2023-09-20T21:30:42.579Z,63.91
2023-09-20T21:33:10.578Z,63.80
2023-09-20T21:35:38.374Z,63.76
2023-09-20T21:38:12.741Z,63.73
2023-09-20T21:40:40.137Z,65.04
2023-09-20T21:43:10.750Z,65.97
2023-09-20T21:45:39.143Z,66.65
2023-09-20T21:48:07.848Z,66.42
2023-09-20T21:50:36.188Z,66.96
2023-09-20T21:53:05.301Z,66.78
2023-09-20T21:55:33.371Z,66.29
2023-09-20T21:58:00.609Z,65.94
2023-09-20T22:00:27.716Z,65.52
2023-09-20T22:03:05.470Z,65.27
2023-09-20T22:05:34.477Z,65.76
2023-09-20T22:08:03.958Z,66.12
2023-09-20T22:10:46.450Z,66.43
2023-09-20T22:13:15.587Z,67.44
2023-09-20T22:15:46.420Z,68.92
2023-09-20T22:18:25.730Z,69.28
2023-09-20T22:21:01.438Z,68.69
2023-09-20T22:23:29.737Z,67.78
2023-09-20T22:25:59.466Z,67.38
2023-09-20T22:28:27.111Z,67.00
2023-09-20T22:30:54.587Z,66.56
2023-09-20T22:33:21.860Z,66.71
2023-09-20T22:36:00.327Z,66.10
2023-09-20T22:38:35.544Z,66.40
2023-09-20T22:41:02.997Z,66.32
2023-09-20T22:43:31.878Z,65.55
2023-09-20T22:45:59.050Z,66.91
2023-09-20T22:48:28.810Z,67.24
2023-09-20T22:50:57.167Z,66.93
2023-09-20T22:53:24.928Z,66.03
2023-09-20T22:55:53.236Z,65.88
2023-09-20T22:58:20.691Z,65.87
2023-09-20T23:00:50.182Z,65.58
2023-09-20T23:03:22.996Z,65.85
2023-09-20T23:05:53.485Z,65.58
2023-09-20T23:08:21.185Z,66.05
2023-09-20T23:10:53.306Z,65.70
2023-09-20T23:13:23.015Z,65.32
2023-09-20T23:15:54.694Z,64.92
2023-09-20T23:18:24.064Z,65.03
2023-09-20T23:20:53.492Z,64.90
2023-09-20T23:23:21.028Z,64.51
2023-09-20T23:25:51.301Z,64.26
2023-09-20T23:28:18.556Z,64.14
2023-09-20T23:30:47.802Z,64.22
2023-09-20T23:33:18.122Z,63.88
2023-09-20T23:35:52.117Z,63.74
2023-09-20T23:38:22.817Z,63.62
2023-09-20T23:40:59.559Z,63.31
2023-09-20T23:43:26.761Z,63.34
2023-09-20T23:45:53.912Z,63.24
2023-09-20T23:48:21.122Z,63.13
2023-09-20T23:50:49.138Z,63.06
2023-09-20T23:53:16.484Z,63.15
2023-09-20T23:55:43.957Z,62.78
2023-09-20T23:58:13.439Z,63.09
